sensor_id;sensor_type;location;lat;lon;timestamp;P1;durP1;ratioP1;P2;durP2;ratioP2
50880;SDS011;36858;47.832;-3.800;2023-07-28T16:12:02;104.20;;;94.73;;
50880;SDS011;36858;47.832;-3.800;2023-07-28T16:14:29;106.80;;;97.13;;
50880;SDS011;36858;47.832;-3.800;2023-07-28T16:16:56;86.70;;;73.07;;
50880;SDS011;36858;47.832;-3.800;2023-07-28T16:19:23;70.03;;;57.23;;
50880;SDS011;36858;47.832;-3.800;2023-07-28T16:21:50;44.23;;;26.93;;
50880;SDS011;36858;47.832;-3.800;2023-07-28T16:24:20;29.07;;;22.07;;
50880;SDS011;36858;47.832;-3.800;2023-07-28T16:26:47;25.20;;;11.87;;
50880;SDS011;36858;47.832;-3.800;2023-07-28T16:29:14;17.43;;;6.77;;
50880;SDS011;36858;47.832;-3.800;2023-07-28T16:31:41;13.40;;;4.13;;
50880;SDS011;36858;47.832;-3.800;2023-07-28T16:34:08;5.23;;;2.77;;
50880;SDS011;36858;47.832;-3.800;2023-07-28T16:36:34;9.73;;;2.50;;
50880;SDS011;36858;47.832;-3.800;2023-07-28T16:39:02;19.43;;;17.40;;
50880;SDS011;36858;47.832;-3.800;2023-07-28T16:41:29;11.03;;;9.83;;
50880;SDS011;36858;47.832;-3.800;2023-07-28T16:43:55;32.30;;;28.93;;
50880;SDS011;36858;47.832;-3.800;2023-07-28T16:46:22;34.67;;;29.87;;
50880;SDS011;36858;47.832;-3.800;2023-07-28T16:48:49;23.03;;;20.63;;
50880;SDS011;36858;47.832;-3.800;2023-07-28T16:51:16;61.37;;;53.57;;
50880;SDS011;36858;47.832;-3.800;2023-07-28T16:53:43;50.23;;;44.83;;
50880;SDS011;36858;47.832;-3.800;2023-07-28T16:56:10;33.77;;;25.60;;
50880;SDS011;36858;47.832;-3.800;2023-07-28T16:58:37;49.57;;;21.10;;
50880;SDS011;36858;47.832;-3.800;2023-07-28T17:01:04;62.20;;;39.50;;
50880;SDS011;36858;47.832;-3.800;2023-07-28T17:03:31;36.77;;;26.43;;
50880;SDS011;36858;47.832;-3.800;2023-07-28T17:05:58;218.97;;;199.00;;
50880;SDS011;36858;47.832;-3.800;2023-07-28T17:08:25;66.07;;;59.40;;
50880;SDS011;36858;47.832;-3.800;2023-07-28T17:10:52;30.00;;;26.93;;
50880;SDS011;36858;47.832;-3.800;2023-07-28T17:13:19;14.20;;;12.70;;
50880;SDS011;36858;47.832;-3.800;2023-07-28T17:15:47;8.17;;;6.17;;
50880;SDS011;36858;47.832;-3.800;2023-07-28T17:18:15;7.90;;;4.40;;
50880;SDS011;36858;47.832;-3.800;2023-07-28T17:20:42;9.53;;;3.67;;
50880;SDS011;36858;47.832;-3.800;2023-07-28T17:23:09;8.70;;;3.20;;
50880;SDS011;36858;47.832;-3.800;2023-07-28T17:25:37;14.37;;;2.33;;
50880;SDS011;36858;47.832;-3.800;2023-07-28T17:28:04;7.10;;;1.50;;
50880;SDS011;36858;47.832;-3.800;2023-07-28T17:30:31;3.67;;;1.20;;
50880;SDS011;36858;47.832;-3.800;2023-07-28T17:32:58;5.67;;;1.27;;
50880;SDS011;36858;47.832;-3.800;2023-07-28T17:35:25;3.50;;;1.00;;
50880;SDS011;36858;47.832;-3.800;2023-07-28T17:37:52;4.43;;;1.40;;
50880;SDS011;36858;47.832;-3.800;2023-07-28T17:40:20;3.50;;;0.97;;
50880;SDS011;36858;47.832;-3.800;2023-07-28T17:42:47;2.57;;;0.70;;
50880;SDS011;36858;47.832;-3.800;2023-07-28T17:45:14;0.50;;;0.50;;
50880;SDS011;36858;47.832;-3.800;2023-07-28T17:47:41;1.20;;;0.80;;
50880;SDS011;36858;47.832;-3.800;2023-07-28T17:50:08;2.27;;;0.70;;
50880;SDS011;36858;47.832;-3.800;2023-07-28T17:52:38;1.00;;;0.90;;
50880;SDS011;36858;47.832;-3.800;2023-07-28T17:55:05;1.93;;;0.73;;
50880;SDS011;36858;47.832;-3.800;2023-07-28T17:57:34;1.43;;;0.57;;
50880;SDS011;36858;47.832;-3.800;2023-07-28T18:00:00;1.60;;;0.70;;
50880;SDS011;36858;47.832;-3.800;2023-07-28T18:02:27;1.43;;;0.50;;
50880;SDS011;36858;47.832;-3.800;2023-07-28T18:04:54;2.47;;;0.70;;
50880;SDS011;36858;47.832;-3.800;2023-07-28T18:07:22;2.70;;;0.70;;
50880;SDS011;36858;47.832;-3.800;2023-07-28T18:09:49;0.60;;;0.60;;
50880;SDS011;36858;47.832;-3.800;2023-07-28T18:12:18;1.90;;;0.67;;
50880;SDS011;36858;47.832;-3.800;2023-07-28T18:14:45;0.40;;;0.40;;
50880;SDS011;36858;47.832;-3.800;2023-07-28T18:17:12;1.83;;;0.57;;
50880;SDS011;36858;47.832;-3.800;2023-07-28T18:19:39;1.37;;;0.80;;
50880;SDS011;36858;47.832;-3.800;2023-07-28T18:22:06;0.60;;;0.60;;
50880;SDS011;36858;47.832;-3.800;2023-07-28T18:24:33;1.00;;;0.77;;
50880;SDS011;36858;47.832;-3.800;2023-07-28T18:27:00;1.47;;;0.70;;
50880;SDS011;36858;47.832;-3.800;2023-07-28T18:29:27;0.83;;;0.70;;
50880;SDS011;36858;47.832;-3.800;2023-07-28T18:31:54;1.00;;;0.60;;
50880;SDS011;36858;47.832;-3.800;2023-07-28T18:34:21;1.20;;;0.60;;
50880;SDS011;36858;47.832;-3.800;2023-07-28T18:36:48;2.80;;;0.67;;
50880;SDS011;36858;47.832;-3.800;2023-07-28T18:39:19;1.23;;;0.70;;
50880;SDS011;36858;47.832;-3.800;2023-07-28T18:41:46;3.10;;;0.40;;
50880;SDS011;36858;47.832;-3.800;2023-07-28T18:44:13;1.53;;;0.60;;
50880;SDS011;36858;47.832;-3.800;2023-07-28T18:46:41;0.90;;;0.50;;
50880;SDS011;36858;47.832;-3.800;2023-07-28T18:49:08;1.00;;;0.60;;
50880;SDS011;36858;47.832;-3.800;2023-07-28T18:51:35;0.90;;;0.60;;
50880;SDS011;36858;47.832;-3.800;2023-07-28T18:54:02;0.87;;;0.70;;
50880;SDS011;36858;47.832;-3.800;2023-07-28T18:56:29;0.60;;;0.60;;
50880;SDS011;36858;47.832;-3.800;2023-07-28T18:58:56;1.97;;;1.17;;
50880;SDS011;36858;47.832;-3.800;2023-07-28T19:01:23;0.47;;;0.47;;
50880;SDS011;36858;47.832;-3.800;2023-07-28T19:03:50;0.63;;;0.40;;
50880;SDS011;36858;47.832;-3.800;2023-07-28T19:06:17;2.00;;;0.70;;
50880;SDS011;36858;47.832;-3.800;2023-07-28T19:08:46;1.13;;;0.70;;
50880;SDS011;36858;47.832;-3.800;2023-07-28T19:11:18;1.43;;;0.57;;
50880;SDS011;36858;47.832;-3.800;2023-07-28T19:13:45;0.47;;;0.47;;
50880;SDS011;36858;47.832;-3.800;2023-07-28T19:16:13;2.73;;;0.60;;
50880;SDS011;36858;47.832;-3.800;2023-07-28T19:18:40;1.67;;;0.57;;
50880;SDS011;36858;47.832;-3.800;2023-07-28T19:21:07;0.70;;;0.63;;
50880;SDS011;36858;47.832;-3.800;2023-07-28T19:23:33;0.80;;;0.67;;
50880;SDS011;36858;47.832;-3.800;2023-07-28T19:26:00;1.27;;;0.50;;
50880;SDS011;36858;47.832;-3.800;2023-07-28T19:28:27;1.23;;;0.50;;
50880;SDS011;36858;47.832;-3.800;2023-07-28T19:30:54;0.60;;;0.50;;
50880;SDS011;36858;47.832;-3.800;2023-07-28T19:33:26;1.07;;;0.67;;
50880;SDS011;36858;47.832;-3.800;2023-07-28T19:35:53;0.87;;;0.40;;
50880;SDS011;36858;47.832;-3.800;2023-07-28T19:38:20;1.07;;;0.60;;
50880;SDS011;36858;47.832;-3.800;2023-07-28T19:40:47;1.17;;;0.70;;
50880;SDS011;36858;47.832;-3.800;2023-07-28T19:43:14;1.57;;;0.70;;
50880;SDS011;36858;47.832;-3.800;2023-07-28T19:45:41;0.60;;;0.50;;
50880;SDS011;36858;47.832;-3.800;2023-07-28T19:48:08;1.50;;;0.80;;
50880;SDS011;36858;47.832;-3.800;2023-07-28T19:50:35;1.13;;;0.50;;
50880;SDS011;36858;47.832;-3.800;2023-07-28T19:53:11;2.30;;;0.50;;
50880;SDS011;36858;47.832;-3.800;2023-07-28T19:55:38;1.53;;;0.63;;
50880;SDS011;36858;47.832;-3.800;2023-07-28T19:58:07;1.17;;;0.50;;
50880;SDS011;36858;47.832;-3.800;2023-07-28T20:00:34;3.70;;;0.50;;
50880;SDS011;36858;47.832;-3.800;2023-07-28T20:03:01;0.67;;;0.63;;
50880;SDS011;36858;47.832;-3.800;2023-07-28T20:05:28;0.40;;;0.40;;
50880;SDS011;36858;47.832;-3.800;2023-07-28T20:07:55;0.50;;;0.50;;
50880;SDS011;36858;47.832;-3.800;2023-07-28T20:10:22;1.83;;;0.67;;
50880;SDS011;36858;47.832;-3.800;2023-07-28T20:12:54;1.03;;;0.50;;
50880;SDS011;36858;47.832;-3.800;2023-07-28T20:15:21;2.47;;;0.60;;
50880;SDS011;36858;47.832;-3.800;2023-07-28T20:17:48;1.17;;;0.57;;
50880;SDS011;36858;47.832;-3.800;2023-07-28T20:20:15;1.53;;;0.50;;
50880;SDS011;36858;47.832;-3.800;2023-07-28T20:22:42;0.50;;;0.50;;
50880;SDS011;36858;47.832;-3.800;2023-07-28T20:25:09;3.20;;;0.53;;
50880;SDS011;36858;47.832;-3.800;2023-07-28T20:27:42;1.90;;;0.73;;
50880;SDS011;36858;47.832;-3.800;2023-07-28T20:30:10;0.77;;;0.50;;
50880;SDS011;36858;47.832;-3.800;2023-07-28T20:32:38;3.00;;;0.70;;
50880;SDS011;36858;47.832;-3.800;2023-07-28T20:35:05;2.37;;;0.80;;
50880;SDS011;36858;47.832;-3.800;2023-07-28T20:37:32;1.20;;;0.70;;
50880;SDS011;36858;47.832;-3.800;2023-07-28T20:39:59;1.20;;;0.83;;
50880;SDS011;36858;47.832;-3.800;2023-07-28T20:42:26;1.83;;;0.43;;
50880;SDS011;36858;47.832;-3.800;2023-07-28T20:44:56;4.47;;;0.60;;
50880;SDS011;36858;47.832;-3.800;2023-07-28T20:47:23;2.67;;;0.70;;
50880;SDS011;36858;47.832;-3.800;2023-07-28T20:49:50;1.03;;;0.60;;
50880;SDS011;36858;47.832;-3.800;2023-07-28T20:52:17;1.90;;;0.60;;
50880;SDS011;36858;47.832;-3.800;2023-07-28T20:54:44;0.80;;;0.60;;
50880;SDS011;36858;47.832;-3.800;2023-07-28T20:57:14;3.00;;;0.80;;
50880;SDS011;36858;47.832;-3.800;2023-07-28T20:59:41;5.93;;;1.00;;
50880;SDS011;36858;47.832;-3.800;2023-07-28T21:02:08;1.00;;;0.70;;
50880;SDS011;36858;47.832;-3.800;2023-07-28T21:04:35;2.57;;;0.70;;
50880;SDS011;36858;47.832;-3.800;2023-07-28T21:07:02;2.47;;;0.70;;
50880;SDS011;36858;47.832;-3.800;2023-07-28T21:09:30;2.23;;;0.87;;
50880;SDS011;36858;47.832;-3.800;2023-07-28T21:11:57;2.73;;;0.73;;
50880;SDS011;36858;47.832;-3.800;2023-07-28T21:14:24;2.93;;;0.80;;
50880;SDS011;36858;47.832;-3.800;2023-07-28T21:16:51;8.43;;;1.83;;
50880;SDS011;36858;47.832;-3.800;2023-07-28T21:19:17;2.53;;;0.87;;
50880;SDS011;36858;47.832;-3.800;2023-07-28T21:21:44;3.90;;;0.90;;
50880;SDS011;36858;47.832;-3.800;2023-07-28T21:24:11;3.80;;;1.00;;
50880;SDS011;36858;47.832;-3.800;2023-07-28T21:26:38;2.50;;;0.87;;
50880;SDS011;36858;47.832;-3.800;2023-07-28T21:29:05;2.93;;;0.80;;
50880;SDS011;36858;47.832;-3.800;2023-07-28T21:31:32;3.03;;;1.07;;
50880;SDS011;36858;47.832;-3.800;2023-07-28T21:33:59;3.53;;;0.90;;
50880;SDS011;36858;47.832;-3.800;2023-07-28T21:36:26;3.70;;;0.87;;
50880;SDS011;36858;47.832;-3.800;2023-07-28T21:38:56;4.13;;;0.80;;
50880;SDS011;36858;47.832;-3.800;2023-07-28T21:41:23;4.03;;;0.97;;
50880;SDS011;36858;47.832;-3.800;2023-07-28T21:43:50;4.23;;;1.23;;
50880;SDS011;36858;47.832;-3.800;2023-07-28T21:46:17;2.67;;;0.70;;
50880;SDS011;36858;47.832;-3.800;2023-07-28T21:48:44;4.00;;;0.97;;
50880;SDS011;36858;47.832;-3.800;2023-07-28T21:51:11;3.43;;;0.80;;
50880;SDS011;36858;47.832;-3.800;2023-07-28T21:53:38;3.50;;;0.90;;
50880;SDS011;36858;47.832;-3.800;2023-07-28T21:56:05;2.93;;;0.93;;
50880;SDS011;36858;47.832;-3.800;2023-07-28T21:58:32;3.77;;;1.10;;
50880;SDS011;36858;47.832;-3.800;2023-07-28T22:00:59;2.47;;;0.80;;
50880;SDS011;36858;47.832;-3.800;2023-07-28T22:03:26;1.40;;;1.10;;
50880;SDS011;36858;47.832;-3.800;2023-07-28T22:05:53;2.83;;;0.90;;
50880;SDS011;36858;47.832;-3.800;2023-07-28T22:08:20;6.37;;;1.27;;
50880;SDS011;36858;47.832;-3.800;2023-07-28T22:10:47;1.87;;;1.00;;
50880;SDS011;36858;47.832;-3.800;2023-07-28T22:13:14;4.60;;;1.13;;
50880;SDS011;36858;47.832;-3.800;2023-07-28T22:15:41;2.63;;;1.03;;
50880;SDS011;36858;47.832;-3.800;2023-07-28T22:18:08;2.00;;;0.93;;
50880;SDS011;36858;47.832;-3.800;2023-07-28T22:20:40;4.53;;;1.20;;
50880;SDS011;36858;47.832;-3.800;2023-07-28T22:23:09;4.43;;;1.40;;
50880;SDS011;36858;47.832;-3.800;2023-07-28T22:25:40;6.60;;;1.50;;
50880;SDS011;36858;47.832;-3.800;2023-07-28T22:28:08;4.60;;;1.10;;
50880;SDS011;36858;47.832;-3.800;2023-07-28T22:30:36;3.20;;;1.30;;
50880;SDS011;36858;47.832;-3.800;2023-07-28T22:33:04;6.67;;;1.13;;
50880;SDS011;36858;47.832;-3.800;2023-07-28T22:35:36;3.33;;;1.30;;
50880;SDS011;36858;47.832;-3.800;2023-07-28T22:38:04;2.80;;;0.90;;
50880;SDS011;36858;47.832;-3.800;2023-07-28T22:40:31;2.90;;;1.27;;
50880;SDS011;36858;47.832;-3.800;2023-07-28T22:42:58;4.77;;;1.07;;
50880;SDS011;36858;47.832;-3.800;2023-07-28T22:45:25;3.73;;;1.27;;
50880;SDS011;36858;47.832;-3.800;2023-07-28T22:47:53;4.87;;;1.40;;
50880;SDS011;36858;47.832;-3.800;2023-07-28T22:50:21;4.37;;;1.60;;
50880;SDS011;36858;47.832;-3.800;2023-07-28T22:52:48;3.07;;;1.27;;
50880;SDS011;36858;47.832;-3.800;2023-07-28T22:55:14;5.77;;;1.23;;
50880;SDS011;36858;47.832;-3.800;2023-07-28T22:57:44;3.63;;;1.10;;
50880;SDS011;36858;47.832;-3.800;2023-07-28T23:00:12;5.37;;;1.33;;
50880;SDS011;36858;47.832;-3.800;2023-07-28T23:02:39;5.40;;;1.40;;
50880;SDS011;36858;47.832;-3.800;2023-07-28T23:05:06;6.60;;;1.30;;
50880;SDS011;36858;47.832;-3.800;2023-07-28T23:07:36;3.50;;;1.23;;
50880;SDS011;36858;47.832;-3.800;2023-07-28T23:10:04;5.03;;;1.53;;
50880;SDS011;36858;47.832;-3.800;2023-07-28T23:12:32;5.80;;;1.80;;
50880;SDS011;36858;47.832;-3.800;2023-07-28T23:15:00;3.77;;;1.10;;
50880;SDS011;36858;47.832;-3.800;2023-07-28T23:17:27;6.60;;;1.57;;
50880;SDS011;36858;47.832;-3.800;2023-07-28T23:19:54;6.50;;;1.40;;
50880;SDS011;36858;47.832;-3.800;2023-07-28T23:22:21;9.03;;;1.50;;
50880;SDS011;36858;47.832;-3.800;2023-07-28T23:24:48;6.73;;;1.50;;
50880;SDS011;36858;47.832;-3.800;2023-07-28T23:27:15;4.80;;;1.40;;
50880;SDS011;36858;47.832;-3.800;2023-07-28T23:29:44;4.23;;;1.40;;
50880;SDS011;36858;47.832;-3.800;2023-07-28T23:32:11;3.37;;;1.23;;
50880;SDS011;36858;47.832;-3.800;2023-07-28T23:34:38;4.70;;;1.40;;
50880;SDS011;36858;47.832;-3.800;2023-07-28T23:37:05;4.17;;;1.37;;
50880;SDS011;36858;47.832;-3.800;2023-07-28T23:39:32;8.60;;;1.60;;
50880;SDS011;36858;47.832;-3.800;2023-07-28T23:41:59;6.10;;;1.37;;
50880;SDS011;36858;47.832;-3.800;2023-07-28T23:44:27;6.73;;;1.40;;
50880;SDS011;36858;47.832;-3.800;2023-07-28T23:46:55;6.13;;;1.40;;
50880;SDS011;36858;47.832;-3.800;2023-07-28T23:49:22;7.33;;;1.50;;
50880;SDS011;36858;47.832;-3.800;2023-07-28T23:51:49;6.63;;;1.63;;
50880;SDS011;36858;47.832;-3.800;2023-07-28T23:54:16;3.73;;;2.07;;
50880;SDS011;36858;47.832;-3.800;2023-07-28T23:56:43;5.07;;;1.43;;
50880;SDS011;36858;47.832;-3.800;2023-07-28T23:59:10;7.07;;;2.23;;
